Terminal Aerodrome Forecast
Issued by NWS

Home | Current Version | Previous Version | Text Only | Print | Product List | Glossary On
Versions: 1 2 3 4 5 6 7 8 9 10 11 12 13 14 15 16 17
000
FTUS42 KMLB 222300
TAFISM
TAF
KISM 222324Z 2300/2324 VRB04KT P6SM VCSH FEW010 SCT025 BKN045
      TEMPO 2300/2302 6SM -SHRA BKN025 BKN040
     FM230400 VRB03KT P6SM FEW030 SCT120 BKN250
     FM231400 VRB02KT P6SM FEW005 BKN100 BKN250
     FM232000 11006KT P6SM VCTS FEW025 SCT040CB BKN150
      AMD NOT SKED 2302/2311=

USA.gov is the U.S. government's official web portal to all federal, state and local government web resources and services.